createdAt,value
2018-06-29T00:03:26.343Z,22.40
2018-06-29T00:08:30.355Z,22.50
2018-06-29T00:13:34.367Z,22.50
2018-06-29T00:18:38.364Z,22.50
2018-06-29T00:23:42.353Z,22.30
2018-06-29T00:28:46.348Z,22.20
2018-06-29T00:33:50.336Z,22.30
2018-06-29T00:43:57.949Z,21.90
2018-06-29T00:49:01.963Z,22.00
2018-06-29T00:54:05.991Z,22.20
2018-06-29T00:59:09.971Z,22.10
2018-06-29T01:04:13.957Z,22.20
2018-06-29T01:09:17.971Z,22.20
2018-06-29T01:14:22.035Z,22.20
2018-06-29T01:19:26.021Z,22.20
2018-06-29T01:29:33.635Z,22.10
2018-06-29T01:34:37.631Z,21.90
2018-06-29T01:39:41.632Z,22.00
2018-06-29T01:44:45.672Z,21.90
2018-06-29T01:49:49.740Z,21.80
2018-06-29T01:54:53.767Z,21.60
2018-06-29T01:59:57.751Z,21.50
2018-06-29T02:05:01.760Z,21.60
2018-06-29T02:15:09.395Z,21.40
2018-06-29T02:20:13.496Z,21.30
2018-06-29T02:25:17.510Z,21.20
2018-06-29T02:30:21.486Z,21.10
2018-06-29T02:35:25.491Z,21.10
2018-06-29T02:40:29.488Z,21.10
2018-06-29T02:45:33.485Z,20.90
2018-06-29T02:50:37.479Z,20.80
2018-06-29T02:55:41.475Z,20.80
2018-06-29T03:00:45.468Z,20.70
2018-06-29T03:05:49.455Z,20.80
2018-06-29T03:10:53.514Z,20.70
2018-06-29T03:15:57.532Z,20.60
2018-06-29T03:21:01.524Z,20.50
2018-06-29T03:26:05.516Z,20.40
2018-06-29T03:31:09.499Z,20.60
2018-06-29T03:41:17.122Z,20.70
2018-06-29T03:46:21.147Z,20.60
2018-06-29T03:51:25.135Z,20.50
2018-06-29T03:56:29.123Z,20.40
2018-06-29T04:06:37.499Z,20.50
2018-06-29T04:11:41.601Z,20.60
2018-06-29T04:16:45.550Z,20.60
2018-06-29T04:21:49.679Z,20.70
2018-06-29T04:26:53.740Z,20.70
2018-06-29T04:31:57.916Z,20.70
2018-06-29T04:37:01.936Z,20.90
2018-06-29T04:47:09.844Z,21.00
2018-06-29T04:52:13.844Z,21.30
2018-06-29T04:57:17.843Z,21.40
2018-06-29T05:02:22.775Z,21.40
2018-06-29T05:07:26.781Z,21.60
2018-06-29T05:12:30.776Z,21.50
2018-06-29T05:17:34.763Z,21.70
2018-06-29T05:22:38.771Z,21.90
2018-06-29T05:27:42.760Z,22.10
2018-06-29T05:32:46.740Z,22.20
2018-06-29T05:37:50.822Z,22.50
2018-06-29T05:42:54.939Z,22.80
2018-06-29T05:47:59.124Z,22.80
2018-06-29T05:53:03.195Z,23.00
2018-06-29T05:58:08.187Z,23.00
2018-06-29T06:03:14.670Z,23.00
2018-06-29T06:08:18.680Z,23.10
2018-06-29T06:13:23.523Z,23.70
2018-06-29T06:18:27.568Z,23.90
2018-06-29T06:28:35.196Z,24.10
2018-06-29T06:33:39.166Z,24.30
2018-06-29T06:38:43.160Z,24.70
2018-06-29T06:43:47.184Z,24.70
2018-06-29T06:53:54.812Z,25.80
2018-06-29T06:58:59.534Z,26.30
2018-06-29T07:04:03.571Z,26.30
2018-06-29T07:09:09.508Z,27.20
2018-06-29T07:14:13.563Z,27.50
2018-06-29T07:19:17.552Z,27.60
2018-06-29T07:24:21.595Z,27.60
2018-06-29T07:29:25.560Z,28.80
2018-06-29T07:34:29.573Z,29.60
2018-06-29T07:39:34.471Z,30.10
2018-06-29T07:44:39.245Z,29.90
2018-06-29T07:49:43.267Z,29.90
2018-06-29T07:54:47.284Z,30.20
2018-06-29T07:59:51.283Z,30.80
2018-06-29T08:04:55.347Z,30.50
2018-06-29T08:09:59.379Z,30.70
2018-06-29T08:20:07.071Z,31.60
2018-06-29T08:30:16.832Z,31.60
2018-06-29T08:35:20.802Z,32.10
2018-06-29T08:40:24.787Z,32.80
2018-06-29T08:50:33.233Z,32.80
2018-06-29T08:55:37.223Z,33.60
2018-06-29T09:00:41.279Z,32.70
2018-06-29T09:05:45.508Z,31.80
2018-06-29T09:10:49.531Z,32.20
2018-06-29T09:15:53.580Z,32.80
2018-06-29T09:20:57.592Z,33.40
2018-06-29T09:26:01.583Z,34.40
2018-06-29T09:31:05.659Z,35.10
2018-06-29T09:36:09.668Z,35.60
2018-06-29T09:41:13.664Z,35.60
2018-06-29T09:46:17.667Z,35.80
2018-06-29T09:51:21.668Z,36.20
2018-06-29T09:56:25.664Z,35.80
2018-06-29T10:01:30.000Z,34.70
2018-06-29T10:06:33.701Z,33.90
2018-06-29T10:11:37.755Z,34.60
2018-06-29T10:16:41.768Z,34.60
2018-06-29T10:21:45.775Z,35.60
2018-06-29T10:26:49.775Z,35.60
2018-06-29T10:31:53.784Z,36.60
2018-06-29T10:36:57.784Z,36.80
2018-06-29T10:42:01.787Z,37.00
2018-06-29T10:47:05.877Z,37.10
2018-06-29T10:52:09.861Z,36.30
2018-06-29T10:57:13.871Z,34.90
2018-06-29T11:02:17.857Z,34.20
2018-06-29T11:07:21.883Z,35.40
2018-06-29T11:12:25.856Z,37.30
2018-06-29T11:17:29.932Z,35.70
2018-06-29T11:22:33.981Z,35.90
2018-06-29T11:27:37.896Z,35.70
2018-06-29T11:32:41.880Z,35.70
2018-06-29T11:37:45.872Z,35.80
2018-06-29T11:42:49.863Z,36.20
2018-06-29T11:47:53.855Z,38.30
2018-06-29T11:52:57.861Z,37.60
2018-06-29T11:58:01.967Z,38.60
2018-06-29T12:03:05.983Z,38.30
2018-06-29T12:08:09.988Z,38.60
2018-06-29T12:13:13.984Z,37.80
2018-06-29T12:18:18.008Z,37.30
2018-06-29T12:23:23.004Z,38.30
2018-06-29T12:28:27.880Z,39.00
2018-06-29T12:33:32.656Z,39.00
2018-06-29T12:43:40.263Z,40.50
2018-06-29T12:48:44.255Z,39.90
2018-06-29T12:53:48.259Z,40.00
2018-06-29T12:58:52.643Z,39.70
2018-06-29T13:03:56.619Z,39.70
2018-06-29T13:09:00.731Z,39.50
2018-06-29T13:14:05.003Z,39.60
2018-06-29T13:19:09.059Z,39.60
2018-06-29T13:24:13.055Z,40.40
2018-06-29T13:29:17.095Z,39.40
2018-06-29T13:34:21.119Z,40.20
2018-06-29T13:39:25.191Z,40.50
2018-06-29T13:44:29.140Z,39.90
2018-06-29T13:49:33.132Z,40.30
2018-06-29T13:54:37.128Z,40.40
2018-06-29T13:59:41.131Z,40.50
2018-06-29T14:04:45.153Z,40.60
2018-06-29T14:09:49.172Z,39.80
2018-06-29T14:14:53.182Z,40.50
2018-06-29T14:19:57.568Z,39.80
2018-06-29T14:25:01.591Z,39.50
2018-06-29T14:30:05.731Z,40.00
2018-06-29T14:35:09.871Z,39.90
2018-06-29T14:40:13.867Z,39.40
2018-06-29T14:45:17.880Z,39.60
2018-06-29T14:50:21.872Z,39.00
2018-06-29T14:55:25.982Z,39.10
2018-06-29T15:00:29.964Z,38.20
2018-06-29T15:05:34.912Z,38.20
2018-06-29T15:10:38.908Z,38.90
2018-06-29T15:15:42.982Z,39.30
2018-06-29T15:20:47.007Z,38.90
2018-06-29T15:25:51.012Z,38.20
2018-06-29T15:30:54.999Z,38.50
2018-06-29T15:46:06.263Z,37.00
2018-06-29T15:56:14.182Z,36.30
2018-06-29T16:01:18.157Z,36.50
2018-06-29T16:06:22.349Z,36.60
2018-06-29T16:11:26.332Z,35.90
2018-06-29T16:16:30.323Z,36.00
2018-06-29T16:21:34.396Z,36.00
2018-06-29T16:31:41.923Z,34.60
2018-06-29T16:36:45.914Z,35.60
2018-06-29T16:41:49.899Z,34.10
2018-06-29T16:46:53.892Z,34.40
2018-06-29T16:51:57.893Z,33.90
2018-06-29T16:57:01.912Z,34.80
2018-06-29T17:02:06.004Z,35.10
2018-06-29T17:07:10.003Z,33.10
2018-06-29T17:12:14.074Z,32.50
2018-06-29T17:17:18.077Z,32.60
2018-06-29T17:22:22.099Z,32.70
2018-06-29T17:27:26.106Z,32.70
2018-06-29T17:32:30.128Z,31.80
2018-06-29T17:37:34.095Z,30.90
2018-06-29T17:42:38.087Z,30.50
2018-06-29T17:47:42.124Z,30.50
2018-06-29T17:52:46.178Z,31.00
2018-06-29T17:57:50.139Z,30.90
2018-06-29T18:02:54.139Z,31.20
2018-06-29T18:07:58.150Z,30.40
2018-06-29T18:13:03.134Z,30.60
2018-06-29T18:18:07.994Z,30.80
2018-06-29T18:28:15.940Z,30.80
2018-06-29T18:33:20.696Z,31.20
2018-06-29T18:38:24.727Z,31.10
2018-06-29T18:43:28.718Z,30.80
2018-06-29T18:48:32.729Z,30.70
2018-06-29T18:53:36.728Z,30.70
2018-06-29T18:58:40.723Z,30.50
2018-06-29T19:03:44.756Z,30.40
2018-06-29T19:13:53.268Z,29.50
2018-06-29T19:24:00.991Z,29.30
2018-06-29T19:29:05.067Z,28.80
2018-06-29T19:34:09.090Z,28.80
2018-06-29T19:39:13.258Z,28.70
2018-06-29T19:44:17.255Z,28.40
2018-06-29T19:49:21.226Z,28.00
2018-06-29T19:54:25.231Z,27.70
2018-06-29T19:59:29.264Z,27.60
2018-06-29T20:04:33.251Z,27.60
2018-06-29T20:09:37.307Z,27.60
2018-06-29T20:14:41.300Z,27.30
2018-06-29T20:19:45.659Z,27.00
2018-06-29T20:24:49.668Z,26.60
2018-06-29T20:29:53.656Z,26.60
2018-06-29T20:34:57.667Z,26.40
2018-06-29T20:40:01.667Z,26.40
2018-06-29T20:45:05.692Z,26.10
2018-06-29T20:50:09.684Z,25.80
2018-06-29T20:55:13.688Z,26.00
2018-06-29T21:00:17.693Z,25.70
2018-06-29T21:05:21.667Z,25.90
2018-06-29T21:10:25.667Z,25.90
2018-06-29T21:15:29.677Z,26.00
2018-06-29T21:20:33.679Z,25.90
2018-06-29T21:25:37.692Z,25.60
2018-06-29T21:36:48.481Z,25.90
2018-06-29T21:41:52.547Z,25.70
2018-06-29T21:46:56.570Z,25.40
2018-06-29T21:52:00.562Z,25.50
2018-06-29T21:57:04.605Z,25.40
2018-06-29T22:02:08.619Z,25.50
2018-06-29T22:12:16.330Z,25.30
2018-06-29T22:17:20.328Z,24.90
2018-06-29T22:22:24.334Z,25.00
2018-06-29T22:27:28.459Z,24.90
2018-06-29T22:32:32.466Z,24.90
2018-06-29T22:37:36.465Z,24.90
2018-06-29T22:42:40.475Z,24.80
2018-06-29T22:47:44.572Z,24.60
2018-06-29T22:52:48.557Z,24.40
2018-06-29T22:57:52.573Z,24.30
2018-06-29T23:02:58.447Z,24.20
2018-06-29T23:08:02.979Z,24.30
2018-06-29T23:18:10.747Z,24.00
2018-06-29T23:23:14.764Z,24.00
2018-06-29T23:28:18.792Z,23.80
2018-06-29T23:33:22.787Z,23.70
2018-06-29T23:43:30.428Z,23.60
2018-06-29T23:48:34.635Z,23.30
2018-06-29T23:53:38.623Z,23.40
2018-06-29T23:58:42.620Z,23.50
